sensor_id;sensor_type;location;lat;lon;timestamp;pressure;altitude;pressure_sealevel;temperature;humidity
57452;BME280;54295;51.224;-0.164;2022-08-19T00:02:10;100642.32;;;24.89;43.97
57452;BME280;54295;51.224;-0.164;2022-08-19T00:04:53;100648.86;;;24.62;44.10
57452;BME280;54295;51.224;-0.164;2022-08-19T00:07:25;100651.20;;;24.86;44.55
57452;BME280;54295;51.224;-0.164;2022-08-19T00:09:58;100644.66;;;24.94;44.27
57452;BME280;54295;51.224;-0.164;2022-08-19T00:12:29;100640.74;;;25.01;43.81
57452;BME280;54295;51.224;-0.164;2022-08-19T00:14:56;100640.67;;;24.98;43.55
57452;BME280;54295;51.224;-0.164;2022-08-19T00:17:23;100640.96;;;25.10;43.16
57452;BME280;54295;51.224;-0.164;2022-08-19T00:19:50;100636.52;;;25.24;43.12
57452;BME280;54295;51.224;-0.164;2022-08-19T00:22:17;100634.83;;;24.58;44.45
57452;BME280;54295;51.224;-0.164;2022-08-19T00:24:44;100634.47;;;24.91;44.47
57452;BME280;54295;51.224;-0.164;2022-08-19T00:27:11;100631.03;;;24.63;44.61
57452;BME280;54295;51.224;-0.164;2022-08-19T00:29:39;100626.49;;;24.82;44.48
57452;BME280;54295;51.224;-0.164;2022-08-19T00:32:06;100629.94;;;24.92;44.95
57452;BME280;54295;51.224;-0.164;2022-08-19T00:34:33;100630.82;;;24.79;44.59
57452;BME280;54295;51.224;-0.164;2022-08-19T00:37:00;100631.06;;;24.27;45.50
57452;BME280;54295;51.224;-0.164;2022-08-19T00:39:28;100627.44;;;24.71;44.57
57452;BME280;54295;51.224;-0.164;2022-08-19T00:41:55;100626.41;;;24.85;45.08
57452;BME280;54295;51.224;-0.164;2022-08-19T00:44:25;100622.51;;;24.35;45.95
57452;BME280;54295;51.224;-0.164;2022-08-19T00:46:55;100624.65;;;24.47;45.88
57452;BME280;54295;51.224;-0.164;2022-08-19T00:49:25;100620.06;;;23.87;47.00
57452;BME280;54295;51.224;-0.164;2022-08-19T00:51:57;100621.86;;;24.39;46.25
57452;BME280;54295;51.224;-0.164;2022-08-19T00:54:27;100620.49;;;24.48;46.31
57452;BME280;54295;51.224;-0.164;2022-08-19T00:56:55;100623.46;;;24.40;46.23
57452;BME280;54295;51.224;-0.164;2022-08-19T00:59:22;100624.45;;;24.92;46.26
57452;BME280;54295;51.224;-0.164;2022-08-19T01:01:50;100622.92;;;24.72;46.32
57452;BME280;54295;51.224;-0.164;2022-08-19T01:04:17;100617.74;;;24.60;46.86
57452;BME280;54295;51.224;-0.164;2022-08-19T01:06:44;100619.68;;;24.36;46.82
57452;BME280;54295;51.224;-0.164;2022-08-19T01:09:11;100618.70;;;24.40;46.88
57452;BME280;54295;51.224;-0.164;2022-08-19T01:11:41;100618.60;;;24.54;47.25
57452;BME280;54295;51.224;-0.164;2022-08-19T01:14:11;100624.05;;;24.35;46.98
57452;BME280;54295;51.224;-0.164;2022-08-19T01:16:40;100621.79;;;24.24;46.78
57452;BME280;54295;51.224;-0.164;2022-08-19T01:19:26;100620.77;;;24.44;46.48
57452;BME280;54295;51.224;-0.164;2022-08-19T01:21:59;100617.12;;;24.46;46.53
57452;BME280;54295;51.224;-0.164;2022-08-19T01:24:28;100616.73;;;24.33;46.21
57452;BME280;54295;51.224;-0.164;2022-08-19T01:26:55;100610.55;;;24.89;45.89
57452;BME280;54295;51.224;-0.164;2022-08-19T01:29:22;100611.16;;;24.89;45.74
57452;BME280;54295;51.224;-0.164;2022-08-19T01:31:49;100613.26;;;24.78;45.96
57452;BME280;54295;51.224;-0.164;2022-08-19T01:34:15;100616.56;;;24.70;45.75
57452;BME280;54295;51.224;-0.164;2022-08-19T01:36:46;100610.28;;;25.09;45.46
57452;BME280;54295;51.224;-0.164;2022-08-19T01:39:34;100608.84;;;24.96;45.29
57452;BME280;54295;51.224;-0.164;2022-08-19T01:42:01;100605.37;;;25.31;45.18
57452;BME280;54295;51.224;-0.164;2022-08-19T01:44:36;100604.34;;;25.15;44.88
57452;BME280;54295;51.224;-0.164;2022-08-19T01:47:15;100608.66;;;25.45;44.76
57452;BME280;54295;51.224;-0.164;2022-08-19T01:49:45;100610.12;;;24.96;45.25
57452;BME280;54295;51.224;-0.164;2022-08-19T01:52:28;100608.54;;;25.27;45.20
57452;BME280;54295;51.224;-0.164;2022-08-19T01:54:55;100607.05;;;24.78;45.16
57452;BME280;54295;51.224;-0.164;2022-08-19T01:57:22;100604.70;;;24.63;45.74
57452;BME280;54295;51.224;-0.164;2022-08-19T01:59:50;100604.57;;;24.76;45.95
57452;BME280;54295;51.224;-0.164;2022-08-19T02:02:17;100602.60;;;24.79;45.94
57452;BME280;54295;51.224;-0.164;2022-08-19T02:04:44;100598.35;;;24.58;45.93
57452;BME280;54295;51.224;-0.164;2022-08-19T02:07:11;100600.02;;;24.34;45.95
57452;BME280;54295;51.224;-0.164;2022-08-19T02:09:39;100597.96;;;24.76;46.11
57452;BME280;54295;51.224;-0.164;2022-08-19T02:12:07;100595.42;;;24.42;46.19
57452;BME280;54295;51.224;-0.164;2022-08-19T02:14:34;100594.74;;;24.36;46.26
57452;BME280;54295;51.224;-0.164;2022-08-19T02:17:02;100596.93;;;24.95;45.79
57452;BME280;54295;51.224;-0.164;2022-08-19T02:19:30;100598.13;;;24.41;46.20
57452;BME280;54295;51.224;-0.164;2022-08-19T02:21:57;100599.30;;;24.75;46.10
57452;BME280;54295;51.224;-0.164;2022-08-19T02:24:24;100596.10;;;24.81;46.10
57452;BME280;54295;51.224;-0.164;2022-08-19T02:26:51;100597.45;;;24.86;46.04
57452;BME280;54295;51.224;-0.164;2022-08-19T02:29:18;100601.25;;;24.81;46.08
57452;BME280;54295;51.224;-0.164;2022-08-19T02:31:46;100601.66;;;24.49;45.91
57452;BME280;54295;51.224;-0.164;2022-08-19T02:34:13;100602.69;;;24.84;45.65
57452;BME280;54295;51.224;-0.164;2022-08-19T02:36:40;100602.00;;;25.01;45.77
57452;BME280;54295;51.224;-0.164;2022-08-19T02:39:10;100604.64;;;24.90;45.96
57452;BME280;54295;51.224;-0.164;2022-08-19T02:41:59;100605.34;;;24.83;46.27
57452;BME280;54295;51.224;-0.164;2022-08-19T02:44:26;100602.95;;;24.68;45.88
57452;BME280;54295;51.224;-0.164;2022-08-19T02:47:10;100602.98;;;24.76;45.87
57452;BME280;54295;51.224;-0.164;2022-08-19T02:49:45;100601.99;;;25.11;45.75
57452;BME280;54295;51.224;-0.164;2022-08-19T02:52:12;100604.75;;;24.66;45.62
57452;BME280;54295;51.224;-0.164;2022-08-19T02:54:45;100602.87;;;24.95;45.62
57452;BME280;54295;51.224;-0.164;2022-08-19T02:57:12;100602.59;;;25.38;45.31
57452;BME280;54295;51.224;-0.164;2022-08-19T02:59:38;100603.89;;;25.11;45.73
57452;BME280;54295;51.224;-0.164;2022-08-19T03:02:06;100610.18;;;24.71;45.99
57452;BME280;54295;51.224;-0.164;2022-08-19T03:04:33;100612.75;;;25.00;46.03
57452;BME280;54295;51.224;-0.164;2022-08-19T03:07:00;100616.38;;;25.01;45.89
57452;BME280;54295;51.224;-0.164;2022-08-19T03:09:27;100621.00;;;24.50;46.03
57452;BME280;54295;51.224;-0.164;2022-08-19T03:11:54;100617.87;;;24.74;45.85
57452;BME280;54295;51.224;-0.164;2022-08-19T03:14:21;100618.78;;;25.24;45.39
57452;BME280;54295;51.224;-0.164;2022-08-19T03:16:50;100617.21;;;25.44;45.28
57452;BME280;54295;51.224;-0.164;2022-08-19T03:19:19;100612.75;;;24.80;45.58
57452;BME280;54295;51.224;-0.164;2022-08-19T03:21:46;100610.60;;;24.87;45.49
57452;BME280;54295;51.224;-0.164;2022-08-19T03:24:14;100611.13;;;24.69;45.66
57452;BME280;54295;51.224;-0.164;2022-08-19T03:26:43;100612.50;;;24.77;45.80
57452;BME280;54295;51.224;-0.164;2022-08-19T03:29:12;100611.45;;;24.66;46.14
57452;BME280;54295;51.224;-0.164;2022-08-19T03:31:40;100612.94;;;24.72;45.87
57452;BME280;54295;51.224;-0.164;2022-08-19T03:34:09;100614.59;;;24.95;45.84
57452;BME280;54295;51.224;-0.164;2022-08-19T03:36:36;100612.39;;;25.16;45.99
57452;BME280;54295;51.224;-0.164;2022-08-19T03:39:04;100609.70;;;24.80;45.84
57452;BME280;54295;51.224;-0.164;2022-08-19T03:41:37;100611.91;;;24.86;45.74
57452;BME280;54295;51.224;-0.164;2022-08-19T03:44:07;100612.70;;;25.08;45.83
57452;BME280;54295;51.224;-0.164;2022-08-19T03:46:40;100615.29;;;25.01;45.52
57452;BME280;54295;51.224;-0.164;2022-08-19T03:49:07;100619.61;;;25.04;45.56
57452;BME280;54295;51.224;-0.164;2022-08-19T03:51:36;100622.27;;;25.29;45.44
57452;BME280;54295;51.224;-0.164;2022-08-19T03:54:05;100621.92;;;25.12;46.06
57452;BME280;54295;51.224;-0.164;2022-08-19T03:56:34;100621.63;;;24.77;46.23
57452;BME280;54295;51.224;-0.164;2022-08-19T03:59:02;100621.51;;;24.94;46.53
57452;BME280;54295;51.224;-0.164;2022-08-19T04:01:30;100616.83;;;24.89;46.59
57452;BME280;54295;51.224;-0.164;2022-08-19T04:03:58;100614.16;;;24.83;46.74
57452;BME280;54295;51.224;-0.164;2022-08-19T04:06:28;100611.56;;;24.41;47.10
57452;BME280;54295;51.224;-0.164;2022-08-19T04:08:58;100611.77;;;23.99;48.50
57452;BME280;54295;51.224;-0.164;2022-08-19T04:11:29;100614.28;;;24.44;47.87
57452;BME280;54295;51.224;-0.164;2022-08-19T04:13:56;100617.50;;;24.30;47.60
57452;BME280;54295;51.224;-0.164;2022-08-19T04:16:26;100618.94;;;24.33;47.56
57452;BME280;54295;51.224;-0.164;2022-08-19T04:18:53;100617.57;;;24.46;47.58
57452;BME280;54295;51.224;-0.164;2022-08-19T04:21:22;100623.95;;;24.50;47.99
57452;BME280;54295;51.224;-0.164;2022-08-19T04:23:50;100620.83;;;24.56;47.44
57452;BME280;54295;51.224;-0.164;2022-08-19T04:26:20;100623.33;;;24.61;48.01
57452;BME280;54295;51.224;-0.164;2022-08-19T04:28:48;100623.59;;;24.51;47.87
57452;BME280;54295;51.224;-0.164;2022-08-19T04:31:59;100627.75;;;24.36;48.30
57452;BME280;54295;51.224;-0.164;2022-08-19T04:34:28;100628.82;;;24.17;48.19
57452;BME280;54295;51.224;-0.164;2022-08-19T04:36:58;100630.26;;;24.66;47.62
57452;BME280;54295;51.224;-0.164;2022-08-19T04:39:29;100627.71;;;24.63;47.22
57452;BME280;54295;51.224;-0.164;2022-08-19T04:41:57;100628.36;;;24.61;46.75
57452;BME280;54295;51.224;-0.164;2022-08-19T04:44:24;100630.13;;;24.55;46.79
57452;BME280;54295;51.224;-0.164;2022-08-19T04:46:52;100632.04;;;24.88;46.59
57452;BME280;54295;51.224;-0.164;2022-08-19T04:49:21;100632.72;;;24.73;46.64
57452;BME280;54295;51.224;-0.164;2022-08-19T04:51:53;100636.21;;;25.07;46.89
57452;BME280;54295;51.224;-0.164;2022-08-19T04:54:23;100636.10;;;25.40;47.04
57452;BME280;54295;51.224;-0.164;2022-08-19T04:56:51;100643.31;;;24.64;47.72
57452;BME280;54295;51.224;-0.164;2022-08-19T04:59:20;100648.85;;;24.53;47.72
57452;BME280;54295;51.224;-0.164;2022-08-19T05:01:48;100650.47;;;24.28;48.68
57452;BME280;54295;51.224;-0.164;2022-08-19T05:04:17;100647.69;;;24.47;48.41
57452;BME280;54295;51.224;-0.164;2022-08-19T05:06:45;100648.32;;;24.33;48.34
57452;BME280;54295;51.224;-0.164;2022-08-19T05:09:12;100652.98;;;24.38;48.35
57452;BME280;54295;51.224;-0.164;2022-08-19T05:11:39;100659.12;;;24.40;48.38
57452;BME280;54295;51.224;-0.164;2022-08-19T05:14:07;100658.57;;;24.42;48.12
57452;BME280;54295;51.224;-0.164;2022-08-19T05:16:34;100661.29;;;24.31;47.93
57452;BME280;54295;51.224;-0.164;2022-08-19T05:19:02;100661.73;;;24.79;47.25
57452;BME280;54295;51.224;-0.164;2022-08-19T05:21:30;100660.02;;;23.79;49.05
57452;BME280;54295;51.224;-0.164;2022-08-19T05:23:58;100658.67;;;23.84;48.75
57452;BME280;54295;51.224;-0.164;2022-08-19T05:26:25;100665.91;;;24.26;48.38
57452;BME280;54295;51.224;-0.164;2022-08-19T05:28:53;100667.07;;;23.71;48.90
57452;BME280;54295;51.224;-0.164;2022-08-19T05:31:21;100667.36;;;23.87;48.83
57452;BME280;54295;51.224;-0.164;2022-08-19T05:33:48;100666.97;;;24.06;47.76
57452;BME280;54295;51.224;-0.164;2022-08-19T05:36:15;100667.61;;;24.48;47.74
57452;BME280;54295;51.224;-0.164;2022-08-19T05:38:42;100668.58;;;24.58;47.42
57452;BME280;54295;51.224;-0.164;2022-08-19T05:41:10;100669.89;;;24.51;47.50
57452;BME280;54295;51.224;-0.164;2022-08-19T05:43:38;100667.88;;;24.09;48.19
57452;BME280;54295;51.224;-0.164;2022-08-19T05:46:05;100668.85;;;24.12;48.19
57452;BME280;54295;51.224;-0.164;2022-08-19T05:48:34;100673.27;;;24.12;48.23
57452;BME280;54295;51.224;-0.164;2022-08-19T05:51:04;100679.14;;;23.87;48.30
57452;BME280;54295;51.224;-0.164;2022-08-19T05:53:33;100684.25;;;24.40;47.76
57452;BME280;54295;51.224;-0.164;2022-08-19T05:56:04;100681.37;;;24.43;47.36
57452;BME280;54295;51.224;-0.164;2022-08-19T05:58:32;100680.26;;;24.43;47.19
57452;BME280;54295;51.224;-0.164;2022-08-19T06:00:59;100679.38;;;24.15;47.48
57452;BME280;54295;51.224;-0.164;2022-08-19T06:03:27;100680.06;;;24.34;46.97
57452;BME280;54295;51.224;-0.164;2022-08-19T06:05:54;100684.03;;;22.67;48.98
57452;BME280;54295;51.224;-0.164;2022-08-19T06:08:21;100680.53;;;23.67;47.81
57452;BME280;54295;51.224;-0.164;2022-08-19T06:10:48;100680.46;;;23.25;48.00
57452;BME280;54295;51.224;-0.164;2022-08-19T06:13:15;100678.01;;;23.89;47.01
57452;BME280;54295;51.224;-0.164;2022-08-19T06:15:42;100677.07;;;23.75;46.61
57452;BME280;54295;51.224;-0.164;2022-08-19T06:18:08;100683.03;;;24.23;46.01
57452;BME280;54295;51.224;-0.164;2022-08-19T06:20:35;100683.36;;;24.52;44.94
57452;BME280;54295;51.224;-0.164;2022-08-19T06:23:02;100685.65;;;24.75;44.87
57452;BME280;54295;51.224;-0.164;2022-08-19T06:25:29;100687.27;;;24.78;44.90
57452;BME280;54295;51.224;-0.164;2022-08-19T06:27:56;100686.75;;;24.96;44.62
57452;BME280;54295;51.224;-0.164;2022-08-19T06:30:23;100687.10;;;24.70;44.56
57452;BME280;54295;51.224;-0.164;2022-08-19T06:32:50;100685.72;;;24.99;44.29
57452;BME280;54295;51.224;-0.164;2022-08-19T06:35:17;100688.99;;;25.07;44.12
57452;BME280;54295;51.224;-0.164;2022-08-19T06:37:44;100692.57;;;24.95;44.18
57452;BME280;54295;51.224;-0.164;2022-08-19T06:40:12;100692.52;;;24.27;45.03
57452;BME280;54295;51.224;-0.164;2022-08-19T06:42:39;100694.30;;;24.97;44.93
57452;BME280;54295;51.224;-0.164;2022-08-19T06:45:07;100691.58;;;23.94;46.34
57452;BME280;54295;51.224;-0.164;2022-08-19T06:47:34;100690.67;;;24.53;45.65
57452;BME280;54295;51.224;-0.164;2022-08-19T06:50:03;100694.04;;;24.51;45.77
57452;BME280;54295;51.224;-0.164;2022-08-19T06:52:31;100694.65;;;24.47;45.87
57452;BME280;54295;51.224;-0.164;2022-08-19T06:54:59;100693.15;;;23.54;46.97
57452;BME280;54295;51.224;-0.164;2022-08-19T06:57:26;100698.60;;;24.58;45.52
57452;BME280;54295;51.224;-0.164;2022-08-19T06:59:54;100699.44;;;24.48;45.41
57452;BME280;54295;51.224;-0.164;2022-08-19T07:02:22;100698.59;;;24.47;45.24
57452;BME280;54295;51.224;-0.164;2022-08-19T07:04:50;100700.97;;;24.59;45.31
57452;BME280;54295;51.224;-0.164;2022-08-19T07:07:17;100698.80;;;23.72;46.49
57452;BME280;54295;51.224;-0.164;2022-08-19T07:09:44;100700.88;;;24.03;45.83
57452;BME280;54295;51.224;-0.164;2022-08-19T07:12:13;100700.48;;;24.40;45.60
57452;BME280;54295;51.224;-0.164;2022-08-19T07:14:52;100704.55;;;24.76;45.26
57452;BME280;54295;51.224;-0.164;2022-08-19T07:17:18;100702.19;;;24.48;45.09
57452;BME280;54295;51.224;-0.164;2022-08-19T07:19:45;100702.91;;;24.17;45.32
57452;BME280;54295;51.224;-0.164;2022-08-19T07:22:12;100707.71;;;24.22;45.04
57452;BME280;54295;51.224;-0.164;2022-08-19T07:24:39;100710.20;;;23.49;45.15
57452;BME280;54295;51.224;-0.164;2022-08-19T07:27:07;100708.82;;;23.20;45.31
57452;BME280;54295;51.224;-0.164;2022-08-19T07:29:36;100708.04;;;23.74;44.63
57452;BME280;54295;51.224;-0.164;2022-08-19T07:32:04;100711.44;;;24.12;44.04
57452;BME280;54295;51.224;-0.164;2022-08-19T07:34:33;100715.36;;;24.09;43.72
57452;BME280;54295;51.224;-0.164;2022-08-19T07:37:00;100714.39;;;24.10;43.36
57452;BME280;54295;51.224;-0.164;2022-08-19T07:39:28;100713.66;;;24.19;43.66
57452;BME280;54295;51.224;-0.164;2022-08-19T07:41:58;100716.21;;;23.88;43.54
57452;BME280;54295;51.224;-0.164;2022-08-19T07:44:26;100718.23;;;22.95;44.60
57452;BME280;54295;51.224;-0.164;2022-08-19T07:46:55;100712.64;;;24.88;42.90
57452;BME280;54295;51.224;-0.164;2022-08-19T07:49:24;100709.69;;;24.27;42.56
57452;BME280;54295;51.224;-0.164;2022-08-19T07:51:54;100701.73;;;24.80;43.40
57452;BME280;54295;51.224;-0.164;2022-08-19T07:54:23;100704.59;;;22.56;45.59
57452;BME280;54295;51.224;-0.164;2022-08-19T07:56:51;100712.29;;;23.65;44.42
57452;BME280;54295;51.224;-0.164;2022-08-19T07:59:18;100710.76;;;24.39;43.71
57452;BME280;54295;51.224;-0.164;2022-08-19T08:01:46;100715.58;;;23.97;43.83
57452;BME280;54295;51.224;-0.164;2022-08-19T08:04:13;100725.07;;;23.38;45.00
57452;BME280;54295;51.224;-0.164;2022-08-19T08:06:42;100724.41;;;22.04;47.64
57452;BME280;54295;51.224;-0.164;2022-08-19T08:09:12;100724.85;;;22.49;45.54
57452;BME280;54295;51.224;-0.164;2022-08-19T08:11:42;100726.81;;;22.53;44.87
57452;BME280;54295;51.224;-0.164;2022-08-19T08:14:10;100727.80;;;22.34;44.29
57452;BME280;54295;51.224;-0.164;2022-08-19T08:16:38;100731.12;;;23.03;43.96
57452;BME280;54295;51.224;-0.164;2022-08-19T08:19:06;100735.85;;;23.45;43.16
57452;BME280;54295;51.224;-0.164;2022-08-19T08:21:34;100734.56;;;24.10;42.50
57452;BME280;54295;51.224;-0.164;2022-08-19T08:24:01;100737.27;;;23.15;44.31
57452;BME280;54295;51.224;-0.164;2022-08-19T08:26:28;100738.33;;;22.67;45.33
57452;BME280;54295;51.224;-0.164;2022-08-19T08:28:55;100734.47;;;23.01;44.95
57452;BME280;54295;51.224;-0.164;2022-08-19T08:31:22;100735.08;;;22.89;45.75
57452;BME280;54295;51.224;-0.164;2022-08-19T08:33:49;100734.19;;;22.91;44.53
57452;BME280;54295;51.224;-0.164;2022-08-19T08:36:17;100732.68;;;24.52;42.03
57452;BME280;54295;51.224;-0.164;2022-08-19T08:38:45;100729.45;;;24.62;41.35
57452;BME280;54295;51.224;-0.164;2022-08-19T08:41:19;100729.23;;;25.26;40.73
57452;BME280;54295;51.224;-0.164;2022-08-19T08:43:51;100726.16;;;23.56;42.23
57452;BME280;54295;51.224;-0.164;2022-08-19T08:46:22;100728.61;;;24.86;40.60
57452;BME280;54295;51.224;-0.164;2022-08-19T08:48:56;100729.36;;;25.05;40.53
57452;BME280;54295;51.224;-0.164;2022-08-19T08:51:29;100728.46;;;25.44;39.66
57452;BME280;54295;51.224;-0.164;2022-08-19T08:53:59;100730.40;;;25.59;39.16
57452;BME280;54295;51.224;-0.164;2022-08-19T08:56:28;100732.66;;;22.88;41.68
57452;BME280;54295;51.224;-0.164;2022-08-19T08:58:58;100727.54;;;22.36;43.52
57452;BME280;54295;51.224;-0.164;2022-08-19T09:01:26;100726.27;;;22.93;43.51
57452;BME280;54295;51.224;-0.164;2022-08-19T09:03:54;100721.77;;;24.31;41.70
57452;BME280;54295;51.224;-0.164;2022-08-19T09:06:38;100720.04;;;24.15;41.53
57452;BME280;54295;51.224;-0.164;2022-08-19T09:09:15;100724.86;;;23.49;42.36
57452;BME280;54295;51.224;-0.164;2022-08-19T09:11:57;100716.67;;;24.19;42.71
57452;BME280;54295;51.224;-0.164;2022-08-19T09:14:37;100718.91;;;23.58;42.64
57452;BME280;54295;51.224;-0.164;2022-08-19T09:17:05;100725.78;;;22.55;44.74
57452;BME280;54295;51.224;-0.164;2022-08-19T09:19:32;100722.09;;;22.50;44.86
57452;BME280;54295;51.224;-0.164;2022-08-19T09:22:08;100727.01;;;24.44;41.85
57452;BME280;54295;51.224;-0.164;2022-08-19T09:24:34;100725.33;;;25.23;40.42
57452;BME280;54295;51.224;-0.164;2022-08-19T09:27:01;100720.37;;;25.82;39.78
57452;BME280;54295;51.224;-0.164;2022-08-19T09:29:28;100720.19;;;25.24;40.22
57452;BME280;54295;51.224;-0.164;2022-08-19T09:31:55;100715.23;;;25.51;40.22
57452;BME280;54295;51.224;-0.164;2022-08-19T09:34:22;100711.86;;;25.15;40.63
57452;BME280;54295;51.224;-0.164;2022-08-19T09:36:50;100715.03;;;25.99;39.92
57452;BME280;54295;51.224;-0.164;2022-08-19T09:39:17;100718.01;;;25.66;40.17
57452;BME280;54295;51.224;-0.164;2022-08-19T09:41:43;100717.14;;;24.48;41.47
57452;BME280;54295;51.224;-0.164;2022-08-19T09:44:10;100715.28;;;25.22;40.45
57452;BME280;54295;51.224;-0.164;2022-08-19T09:46:39;100714.62;;;23.68;42.44
57452;BME280;54295;51.224;-0.164;2022-08-19T09:49:07;100715.58;;;24.49;42.03
57452;BME280;54295;51.224;-0.164;2022-08-19T09:51:33;100713.74;;;24.99;41.23
57452;BME280;54295;51.224;-0.164;2022-08-19T09:54:02;100713.66;;;25.84;40.27
57452;BME280;54295;51.224;-0.164;2022-08-19T09:56:31;100711.08;;;26.21;38.85
57452;BME280;54295;51.224;-0.164;2022-08-19T09:58:59;100713.94;;;24.71;40.60
57452;BME280;54295;51.224;-0.164;2022-08-19T10:01:29;100716.03;;;25.31;40.71
57452;BME280;54295;51.224;-0.164;2022-08-19T10:03:59;100717.89;;;26.31;38.97
57452;BME280;54295;51.224;-0.164;2022-08-19T10:06:29;100718.78;;;26.09;38.97
57452;BME280;54295;51.224;-0.164;2022-08-19T10:08:56;100724.56;;;26.61;38.98
57452;BME280;54295;51.224;-0.164;2022-08-19T10:11:23;100722.83;;;26.38;38.82
57452;BME280;54295;51.224;-0.164;2022-08-19T10:13:50;100724.90;;;25.41;40.46
57452;BME280;54295;51.224;-0.164;2022-08-19T10:16:19;100727.69;;;25.55;40.21
57452;BME280;54295;51.224;-0.164;2022-08-19T10:18:48;100731.82;;;25.15;42.41
57452;BME280;54295;51.224;-0.164;2022-08-19T10:21:18;100735.46;;;24.60;42.95
57452;BME280;54295;51.224;-0.164;2022-08-19T10:23:47;100737.30;;;24.32;42.61
57452;BME280;54295;51.224;-0.164;2022-08-19T10:26:18;100739.20;;;24.99;41.53
57452;BME280;54295;51.224;-0.164;2022-08-19T10:28:47;100742.46;;;24.56;42.15
57452;BME280;54295;51.224;-0.164;2022-08-19T10:31:17;100746.71;;;24.71;42.20
57452;BME280;54295;51.224;-0.164;2022-08-19T10:33:46;100750.46;;;24.98;42.19
57452;BME280;54295;51.224;-0.164;2022-08-19T10:36:15;100753.82;;;23.21;45.53
57452;BME280;54295;51.224;-0.164;2022-08-19T10:38:43;100756.82;;;24.19;43.10
57452;BME280;54295;51.224;-0.164;2022-08-19T10:41:13;100764.15;;;24.38;43.20
57452;BME280;54295;51.224;-0.164;2022-08-19T10:43:41;100768.54;;;23.66;45.67
57452;BME280;54295;51.224;-0.164;2022-08-19T10:46:12;100771.17;;;23.70;46.00
57452;BME280;54295;51.224;-0.164;2022-08-19T10:48:40;100772.89;;;23.40;47.57
57452;BME280;54295;51.224;-0.164;2022-08-19T10:51:07;100776.11;;;24.32;46.29
57452;BME280;54295;51.224;-0.164;2022-08-19T10:53:35;100774.02;;;23.55;47.23
57452;BME280;54295;51.224;-0.164;2022-08-19T10:56:02;100773.65;;;24.06;46.30
57452;BME280;54295;51.224;-0.164;2022-08-19T10:58:30;100769.42;;;23.95;46.00
57452;BME280;54295;51.224;-0.164;2022-08-19T11:00:58;100772.37;;;24.20;45.99
57452;BME280;54295;51.224;-0.164;2022-08-19T11:03:26;100773.40;;;24.04;46.91
57452;BME280;54295;51.224;-0.164;2022-08-19T11:06:02;100774.89;;;24.04;46.88
57452;BME280;54295;51.224;-0.164;2022-08-19T11:08:30;100779.95;;;23.33;48.42
57452;BME280;54295;51.224;-0.164;2022-08-19T11:11:00;100783.20;;;22.89;49.23
57452;BME280;54295;51.224;-0.164;2022-08-19T11:13:28;100782.08;;;23.24;48.57
57452;BME280;54295;51.224;-0.164;2022-08-19T11:15:59;100782.03;;;22.36;50.04
57452;BME280;54295;51.224;-0.164;2022-08-19T11:18:27;100779.53;;;22.50;49.81
57452;BME280;54295;51.224;-0.164;2022-08-19T11:20:55;100780.12;;;23.69;48.75
57452;BME280;54295;51.224;-0.164;2022-08-19T11:23:31;100777.70;;;20.88;52.31
57452;BME280;54295;51.224;-0.164;2022-08-19T11:25:58;100779.74;;;22.64;51.36
57452;BME280;54295;51.224;-0.164;2022-08-19T11:28:25;100780.91;;;22.77;50.83
57452;BME280;54295;51.224;-0.164;2022-08-19T11:30:52;100784.41;;;23.09;49.70
57452;BME280;54295;51.224;-0.164;2022-08-19T11:33:19;100787.75;;;23.33;50.14
57452;BME280;54295;51.224;-0.164;2022-08-19T11:35:46;100785.55;;;23.60;48.45
57452;BME280;54295;51.224;-0.164;2022-08-19T11:38:13;100784.52;;;23.55;48.38
57452;BME280;54295;51.224;-0.164;2022-08-19T11:40:40;100784.64;;;24.03;47.80
57452;BME280;54295;51.224;-0.164;2022-08-19T11:43:06;100785.42;;;23.80;47.54
57452;BME280;54295;51.224;-0.164;2022-08-19T11:45:33;100783.70;;;23.76;47.45
57452;BME280;54295;51.224;-0.164;2022-08-19T11:48:00;100780.30;;;24.41;45.53
57452;BME280;54295;51.224;-0.164;2022-08-19T11:50:27;100778.80;;;24.42;45.48
57452;BME280;54295;51.224;-0.164;2022-08-19T11:52:56;100776.14;;;24.00;45.65
57452;BME280;54295;51.224;-0.164;2022-08-19T11:55:28;100776.97;;;24.50;45.69
57452;BME280;54295;51.224;-0.164;2022-08-19T11:58:06;100774.25;;;25.01;43.70
57452;BME280;54295;51.224;-0.164;2022-08-19T12:00:44;100773.15;;;24.93;44.06
57452;BME280;54295;51.224;-0.164;2022-08-19T12:03:11;100772.99;;;23.97;44.20
57452;BME280;54295;51.224;-0.164;2022-08-19T12:05:40;100773.08;;;24.60;43.66
57452;BME280;54295;51.224;-0.164;2022-08-19T12:08:08;100777.80;;;25.28;42.80
57452;BME280;54295;51.224;-0.164;2022-08-19T12:10:36;100780.67;;;25.03;41.43
57452;BME280;54295;51.224;-0.164;2022-08-19T12:13:04;100781.18;;;25.15;42.87
57452;BME280;54295;51.224;-0.164;2022-08-19T12:15:35;100777.67;;;24.75;41.75
57452;BME280;54295;51.224;-0.164;2022-08-19T12:18:03;100774.71;;;25.30;41.79
57452;BME280;54295;51.224;-0.164;2022-08-19T12:20:35;100775.74;;;24.96;40.50
57452;BME280;54295;51.224;-0.164;2022-08-19T12:23:03;100773.49;;;24.74;40.74
57452;BME280;54295;51.224;-0.164;2022-08-19T12:25:30;100772.43;;;24.86;38.79
57452;BME280;54295;51.224;-0.164;2022-08-19T12:27:58;100768.96;;;24.04;38.77
57452;BME280;54295;51.224;-0.164;2022-08-19T12:30:25;100774.01;;;23.16;39.91
57452;BME280;54295;51.224;-0.164;2022-08-19T12:32:53;100775.71;;;23.45;39.90
57452;BME280;54295;51.224;-0.164;2022-08-19T12:35:21;100776.14;;;24.06;40.13
57452;BME280;54295;51.224;-0.164;2022-08-19T12:37:49;100781.27;;;23.91;38.25
57452;BME280;54295;51.224;-0.164;2022-08-19T12:40:16;100772.59;;;24.67;39.76
57452;BME280;54295;51.224;-0.164;2022-08-19T12:42:44;100774.48;;;23.28;40.12
57452;BME280;54295;51.224;-0.164;2022-08-19T12:45:12;100772.22;;;23.60;39.53
57452;BME280;54295;51.224;-0.164;2022-08-19T12:47:40;100770.26;;;24.22;38.54
57452;BME280;54295;51.224;-0.164;2022-08-19T12:50:08;100777.28;;;22.78;38.41